Time;durP1;ratioP1;P1;durP2;ratioP2;P2;SDS_P1;SDS_P2;PMS_P1;PMS_P2;Temp;Humidity;BMP_temperature;BMP_pressure;BME280_temperature;BME280_humidity;BME280_pressure;Samples;Min_cycle;Max_cycle;Signal;HPM_P1;HPM_P2
2022/07/05 00:02:06;;;;;;;8.90;5.15;;;;;;;26.15;40.71;99324.25;5075871;28;20040;-67
2022/07/05 00:04:31;;;;;;;9.25;6.13;;;;;;;26.11;40.71;99317.63;5075750;28;20432;-67
2022/07/05 00:09:41;;;;;;;5.90;5.22;;;;;;;26.01;40.69;99328.97;5075530;28;20817;-67
2022/07/05 00:12:07;;;;;;;8.88;5.45;;;;;;;25.97;41.15;99336.72;5075569;28;20040;-67
2022/07/05 00:14:32;;;;;;;6.82;5.32;;;;;;;25.96;41.04;99337.78;5075528;28;20074;-67
2022/07/05 00:16:58;;;;;;;7.22;5.28;;;;;;;25.94;40.92;99333.66;5075241;28;20474;-67
2022/07/05 00:19:23;;;;;;;6.85;6.10;;;;;;;25.90;41.08;99336.81;5075651;28;20028;-67
2022/07/05 00:21:49;;;;;;;7.40;5.57;;;;;;;25.86;41.43;99332.88;5075120;28;20032;-67
2022/07/05 00:24:15;;;;;;;8.05;5.88;;;;;;;25.84;41.36;99323.34;5075243;28;20024;-67
2022/07/05 00:26:40;;;;;;;10.40;6.18;;;;;;;25.80;41.40;99328.38;5075343;28;20028;-67
2022/07/05 00:29:06;;;;;;;6.97;5.50;;;;;;;25.82;41.10;99333.56;5075496;28;20032;-67
2022/07/05 00:31:31;;;;;;;8.48;5.15;;;;;;;25.81;41.28;99329.19;5074941;28;20036;-67
2022/07/05 00:33:56;;;;;;;8.82;5.97;;;;;;;25.84;41.28;99331.47;5074951;28;20036;-67
2022/07/05 00:36:22;;;;;;;7.22;4.82;;;;;;;25.86;41.40;99332.06;5075337;28;20386;-67
2022/07/05 00:38:47;;;;;;;6.40;5.13;;;;;;;25.87;41.09;99336.44;5074673;28;20550;-66
2022/07/05 00:41:13;;;;;;;6.28;5.15;;;;;;;25.87;41.11;99326.41;5075244;28;20036;-66
2022/07/05 00:43:56;;;;;;;6.20;5.05;;;;;;;25.89;41.06;99326.19;5073645;28;20557;-66
2022/07/05 00:46:22;;;;;;;6.63;5.68;;;;;;;25.87;41.18;99322.88;5075042;28;20043;-66
2022/07/05 00:48:48;;;;;;;5.65;4.85;;;;;;;25.86;41.19;99330.19;5074746;28;20082;-66
2022/07/05 00:51:14;;;;;;;7.65;4.72;;;;;;;25.83;41.18;99333.34;5075056;28;20024;-66
2022/07/05 00:53:40;;;;;;;8.05;4.93;;;;;;;25.80;41.31;99330.25;5074911;28;20097;-66
2022/07/05 00:56:06;;;;;;;7.28;5.40;;;;;;;25.77;41.05;99330.69;5075041;28;20028;-66
2022/07/05 00:58:33;;;;;;;7.60;5.80;;;;;;;25.77;41.08;99336.97;5074366;28;20036;-67
2022/07/05 01:01:01;;;;;;;7.55;5.30;;;;;;;25.73;41.40;99341.16;5074613;28;20506;-67
2022/07/05 01:03:27;;;;;;;10.50;5.05;;;;;;;25.72;41.15;99340.34;5074525;28;20123;-67
2022/07/05 01:05:54;;;;;;;6.55;4.70;;;;;;;25.71;41.31;99338.69;5074420;28;20115;-67
2022/07/05 01:08:22;;;;;;;6.68;4.75;;;;;;;25.71;41.19;99345.97;5074669;28;20127;-67
2022/07/05 01:10:47;;;;;;;7.57;4.70;;;;;;;25.72;41.23;99339.50;5074475;28;20028;-67
2022/07/05 01:13:13;;;;;;;5.35;4.85;;;;;;;25.75;41.05;99329.03;5074676;28;20043;-66
2022/07/05 01:15:40;;;;;;;8.80;4.85;;;;;;;25.69;41.22;99335.38;5074561;28;20399;-67
2022/07/05 01:18:07;;;;;;;6.25;4.57;;;;;;;25.70;40.97;99336.19;5074081;28;20720;-68
2022/07/05 01:20:33;;;;;;;5.15;4.65;;;;;;;25.71;41.42;99335.16;5074144;28;20058;-68
2022/07/05 01:22:59;;;;;;;7.80;4.72;;;;;;;25.68;41.09;99335.59;5074221;28;20123;-67
2022/07/05 01:25:27;;;;;;;5.85;4.55;;;;;;;25.64;41.17;99335.22;5074049;28;20487;-67
2022/07/05 01:27:53;;;;;;;4.68;4.22;;;;;;;25.61;41.29;99334.84;5061458;28;20052;-67
2022/07/05 01:30:19;;;;;;;8.88;5.60;;;;;;;25.61;41.65;99334.84;5053993;28;20036;-67
2022/07/05 01:32:45;;;;;;;6.45;4.90;;;;;;;25.57;41.48;99337.19;5054198;28;20124;-67
2022/07/05 01:35:13;;;;;;;23.33;5.55;;;;;;;25.59;41.44;99335.91;5054197;28;20024;-67
2022/07/05 01:37:39;;;;;;;9.65;5.07;;;;;;;25.59;41.53;99333.19;5059274;28;20063;-67
2022/07/05 01:40:06;;;;;;;5.65;4.70;;;;;;;25.63;41.42;99335.47;5074175;28;20051;-67
2022/07/05 01:42:32;;;;;;;11.20;6.05;;;;;;;25.63;41.77;99330.03;5072333;28;20123;-68
2022/07/05 01:44:57;;;;;;;7.32;5.05;;;;;;;25.59;41.82;99333.19;5074030;28;20119;-68
2022/07/05 01:47:23;;;;;;;6.93;4.97;;;;;;;25.57;42.11;99337.19;5073866;28;20039;-68
2022/07/05 01:49:53;;;;;;;6.43;4.65;;;;;;;25.52;42.11;99331.59;5073683;28;20115;-68
2022/07/05 01:52:21;;;;;;;6.97;5.85;;;;;;;25.50;42.02;99333.69;5072527;28;20032;-67
2022/07/05 01:54:47;;;;;;;7.85;4.70;;;;;;;25.49;42.19;99335.59;5073779;28;20072;-68
2022/07/05 01:57:13;;;;;;;5.93;5.32;;;;;;;25.50;42.54;99337.25;5073717;28;20059;-68
2022/07/05 01:59:38;;;;;;;5.47;4.82;;;;;;;25.45;42.21;99326.25;5073299;28;20044;-68
2022/07/05 02:02:06;;;;;;;6.18;4.60;;;;;;;25.42;42.35;99332.97;5073800;28;20127;-68
2022/07/05 02:04:34;;;;;;;6.10;5.50;;;;;;;25.41;42.78;99322.28;5073473;28;20477;-67
2022/07/05 02:06:59;;;;;;;8.90;5.22;;;;;;;25.43;42.99;99333.78;5073155;28;20040;-67
2022/07/05 02:09:25;;;;;;;5.13;4.63;;;;;;;25.40;43.02;99332.31;5073523;28;20036;-68
2022/07/05 02:11:51;;;;;;;9.48;5.20;;;;;;;25.41;43.37;99330.44;5073010;28;20127;-68
2022/07/05 02:14:17;;;;;;;5.03;4.40;;;;;;;25.41;42.97;99330.44;5073214;28;20056;-68
2022/07/05 02:16:42;;;;;;;7.60;4.32;;;;;;;25.43;42.74;99331.06;5073069;28;20091;-67
2022/07/05 02:19:08;;;;;;;7.65;5.35;;;;;;;25.42;42.58;99337.53;5073369;28;20062;-67
2022/07/05 02:21:33;;;;;;;7.18;4.93;;;;;;;25.49;42.90;99334.75;5073406;28;20471;-68
2022/07/05 02:23:58;;;;;;;5.25;4.75;;;;;;;25.49;42.89;99334.75;5072972;28;20089;-68
2022/07/05 02:26:24;;;;;;;6.57;5.00;;;;;;;25.49;43.17;99343.72;5072658;28;20115;-67
2022/07/05 02:28:50;;;;;;;8.38;5.15;;;;;;;25.52;42.74;99337.84;5073189;28;20514;-67
2022/07/05 02:31:16;;;;;;;10.88;5.00;;;;;;;25.57;42.70;99338.00;5073244;28;20036;-68
2022/07/05 02:33:42;;;;;;;5.95;4.90;;;;;;;25.62;42.77;99340.03;5072999;28;20040;-68
2022/07/05 02:36:12;;;;;;;8.10;4.88;;;;;;;25.65;43.16;99330.66;5073129;28;20391;-68
2022/07/05 02:38:38;;;;;;;6.65;5.10;;;;;;;25.67;43.02;99329.34;5072778;28;20040;-68
2022/07/05 02:41:08;;;;;;;5.60;5.10;;;;;;;25.74;43.33;99335.50;5071465;28;20040;-68
2022/07/05 02:43:34;;;;;;;5.28;4.78;;;;;;;25.77;42.79;99342.38;5072842;28;20500;-68
2022/07/05 02:46:00;;;;;;;8.10;5.13;;;;;;;25.84;42.70;99340.41;5072640;28;20051;-68
2022/07/05 02:48:26;;;;;;;5.55;5.05;;;;;;;25.88;42.81;99338.09;5071251;28;20391;-68
2022/07/05 02:50:52;;;;;;;6.18;4.65;;;;;;;25.88;42.68;99335.38;5072704;28;20115;-67
2022/07/05 02:53:17;;;;;;;6.38;4.70;;;;;;;25.89;42.93;99339.72;5072913;28;20067;-68
2022/07/05 02:55:43;;;;;;;7.60;5.00;;;;;;;25.90;42.92;99339.53;5072854;28;20480;-68
2022/07/05 02:58:08;;;;;;;7.57;4.72;;;;;;;25.93;42.59;99343.66;5072604;28;20032;-67
2022/07/05 03:00:33;;;;;;;9.32;5.13;;;;;;;25.95;42.41;99343.44;5072847;28;20492;-68
2022/07/05 03:02:59;;;;;;;7.53;4.88;;;;;;;25.95;42.32;99335.31;5072150;28;20037;-68
2022/07/05 03:05:24;;;;;;;6.13;5.10;;;;;;;25.99;42.43;99336.50;5072407;28;20606;-68
2022/07/05 03:07:50;;;;;;;5.07;4.43;;;;;;;25.99;42.47;99345.47;5072703;28;20029;-68
2022/07/05 03:10:15;;;;;;;6.78;4.80;;;;;;;26.00;42.36;99351.69;5073067;28;20454;-68
2022/07/05 03:12:41;;;;;;;5.82;4.60;;;;;;;26.01;42.02;99345.22;5072388;28;20120;-68
2022/07/05 03:15:07;;;;;;;8.20;5.18;;;;;;;26.09;41.92;99346.81;5072547;28;20025;-68
2022/07/05 03:17:32;;;;;;;6.20;5.32;;;;;;;26.18;41.62;99354.44;5071671;28;20068;-68
2022/07/05 03:19:58;;;;;;;9.70;5.25;;;;;;;26.31;41.53;99344.47;5072535;28;20032;-68
2022/07/05 03:22:23;;;;;;;7.97;4.97;;;;;;;26.44;41.24;99347.00;5072018;28;20036;-68
2022/07/05 03:24:49;;;;;;;7.90;4.90;;;;;;;26.53;41.02;99352.09;5072591;28;20123;-68
2022/07/05 03:27:14;;;;;;;7.20;4.72;;;;;;;26.63;40.91;99352.38;5072461;28;20036;-68
2022/07/05 03:29:40;;;;;;;8.10;4.70;;;;;;;26.67;40.95;99350.84;5072322;28;20044;-68
2022/07/05 03:32:06;;;;;;;6.13;5.32;;;;;;;26.77;40.77;99358.41;5072004;28;20107;-68
2022/07/05 03:34:31;;;;;;;9.48;5.18;;;;;;;26.87;40.66;99355.16;5071500;28;20119;-68
2022/07/05 03:36:56;;;;;;;8.88;4.65;;;;;;;27.02;40.10;99354.72;5072384;28;20427;-68
2022/07/05 03:39:22;;;;;;;7.70;5.38;;;;;;;27.06;40.29;99354.03;5072672;28;20186;-68
2022/07/05 03:41:47;;;;;;;7.20;4.85;;;;;;;27.07;40.33;99355.69;5072066;28;20039;-67
2022/07/05 03:44:13;;;;;;;5.78;5.05;;;;;;;27.08;40.20;99362.75;5072665;28;20032;-68
2022/07/05 03:46:38;;;;;;;7.95;5.00;;;;;;;27.17;40.12;99367.84;5072056;28;20541;-68
2022/07/05 03:49:04;;;;;;;8.52;5.72;;;;;;;27.19;39.64;99373.88;5072108;28;20032;-68
2022/07/05 03:51:29;;;;;;;6.82;5.68;;;;;;;27.23;39.61;99372.34;5072266;28;20117;-68
2022/07/05 03:53:55;;;;;;;12.70;6.95;;;;;;;27.24;39.77;99368.56;5072277;28;20123;-68
2022/07/05 03:56:22;;;;;;;7.82;5.78;;;;;;;27.23;39.76;99366.91;5072207;28;20462;-68
2022/07/05 03:58:51;;;;;;;10.90;5.53;;;;;;;27.29;39.56;99365.97;5071956;28;20032;-67
2022/07/05 04:01:17;;;;;;;9.48;5.53;;;;;;;27.36;39.35;99369.41;5072197;28;20043;-68
2022/07/05 04:03:42;;;;;;;6.72;5.25;;;;;;;27.39;39.17;99385.22;5072171;28;20479;-68
2022/07/05 04:06:09;;;;;;;5.68;5.05;;;;;;;27.37;39.05;99378.34;5071901;28;20033;-68
2022/07/05 04:08:35;;;;;;;7.72;4.82;;;;;;;27.35;39.47;99375.91;5072040;28;20028;-68
2022/07/05 04:11:01;;;;;;;15.90;4.72;;;;;;;27.35;39.12;99380.50;5071674;28;20399;-67
2022/07/05 04:13:26;;;;;;;6.65;4.80;;;;;;;27.36;38.96;99376.72;5072347;28;20032;-68
2022/07/05 04:15:53;;;;;;;6.05;4.60;;;;;;;27.40;39.06;99375.19;5075411;28;20032;-68
2022/07/05 04:18:18;;;;;;;7.60;5.32;;;;;;;27.40;39.22;99373.31;5075200;28;20063;-68
2022/07/05 04:20:44;;;;;;;7.40;4.95;;;;;;;27.42;38.90;99373.06;5075435;28;20036;-68
2022/07/05 04:23:10;;;;;;;8.40;5.57;;;;;;;27.41;38.93;99377.69;5075139;28;20479;-68
2022/07/05 04:25:35;;;;;;;5.85;4.63;;;;;;;27.43;38.95;99382.88;5075427;28;20094;-68
2022/07/05 04:28:01;;;;;;;10.88;6.75;;;;;;;27.44;39.01;99378.25;5075048;28;20090;-68
2022/07/05 04:30:26;;;;;;;8.75;5.88;;;;;;;27.42;39.26;99379.31;5075480;28;20115;-68
2022/07/05 04:32:52;;;;;;;7.90;5.07;;;;;;;27.38;39.17;99378.16;5075384;28;20032;-68
2022/07/05 04:35:18;;;;;;;6.82;5.25;;;;;;;27.40;39.02;99383.34;5075124;28;20476;-67
2022/07/05 04:37:44;;;;;;;15.02;5.78;;;;;;;27.45;39.04;99383.50;5074755;28;20028;-68
2022/07/05 04:40:12;;;;;;;8.25;4.85;;;;;;;27.58;38.85;99385.13;5075236;28;20040;-68
2022/07/05 04:42:38;;;;;;;6.00;4.80;;;;;;;27.77;38.34;99374.97;5074959;28;20036;-67
2022/07/05 04:45:05;;;;;;;8.68;4.97;;;;;;;27.95;38.36;99373.16;5075103;28;20515;-68
2022/07/05 04:47:30;;;;;;;8.48;4.80;;;;;;;28.15;38.11;99373.59;5074725;28;20543;-68
2022/07/05 04:49:59;;;;;;;4.88;4.38;;;;;;;28.38;37.68;99379.22;5074628;28;20029;-68
2022/07/05 04:52:25;;;;;;;5.47;4.57;;;;;;;28.55;37.28;99382.81;5074811;28;20036;-68
2022/07/05 04:54:50;;;;;;;6.50;4.80;;;;;;;28.70;36.75;99376.81;5074970;28;20032;-68
2022/07/05 04:57:16;;;;;;;9.45;5.53;;;;;;;28.83;36.98;99383.88;5074900;28;20044;-68
2022/07/05 04:59:41;;;;;;;8.32;4.68;;;;;;;28.94;36.72;99379.44;5074719;28;20032;-68
2022/07/05 05:02:07;;;;;;;7.55;4.50;;;;;;;29.05;36.17;99375.81;5075040;28;20059;-68
2022/07/05 05:04:32;;;;;;;8.45;5.28;;;;;;;29.16;36.26;99381.44;5074655;28;20086;-68
2022/07/05 05:06:58;;;;;;;7.82;5.13;;;;;;;29.23;35.99;99382.09;5074230;28;20036;-67
2022/07/05 05:09:24;;;;;;;6.57;4.25;;;;;;;29.33;35.96;99378.72;5074359;28;20039;-68
2022/07/05 05:11:50;;;;;;;9.05;5.47;;;;;;;29.42;36.03;99382.69;5074585;28;20041;-68
2022/07/05 05:14:15;;;;;;;7.93;5.60;;;;;;;29.51;36.13;99375.72;5074677;28;20058;-68
2022/07/05 05:16:41;;;;;;;10.30;4.40;;;;;;;29.58;36.13;99372.81;5074239;28;20427;-68
2022/07/05 05:19:07;;;;;;;5.88;4.40;;;;;;;29.69;36.07;99380.09;5074110;28;20082;-68
2022/07/05 05:21:32;;;;;;;7.72;5.60;;;;;;;29.80;35.79;99372.84;5074371;28;20468;-68
2022/07/05 05:23:58;;;;;;;13.27;8.40;;;;;;;29.89;35.60;99372.44;5074502;28;20033;-68
2022/07/05 05:26:24;;;;;;;11.40;6.93;;;;;;;29.97;35.42;99381.03;5073905;28;20523;-68
2022/07/05 05:28:50;;;;;;;11.35;6.43;;;;;;;30.07;35.27;99380.31;5074153;28;20120;-68
2022/07/05 05:31:16;;;;;;;10.30;6.72;;;;;;;30.13;35.36;99379.31;5073931;28;20377;-68
2022/07/05 05:33:41;;;;;;;12.82;7.88;;;;;;;30.22;35.32;99385.13;5073763;28;20040;-68
2022/07/05 05:36:07;;;;;;;21.50;9.48;;;;;;;30.29;35.12;99383.03;5074066;28;20024;-68
2022/07/05 05:38:32;;;;;;;16.90;8.93;;;;;;;30.36;35.13;99380.13;5073657;28;20400;-68
2022/07/05 05:40:58;;;;;;;20.00;9.07;;;;;;;30.43;35.13;99386.19;5074057;28;20040;-68
2022/07/05 05:43:24;;;;;;;16.20;10.02;;;;;;;30.48;35.00;99384.63;5073970;28;20471;-68
2022/07/05 05:45:49;;;;;;;17.10;9.05;;;;;;;30.49;34.94;99372.63;5073558;28;20041;-68
2022/07/05 05:48:14;;;;;;;15.15;7.10;;;;;;;30.50;34.49;99372.34;5071891;28;20032;-68
2022/07/05 05:50:40;;;;;;;9.27;6.03;;;;;;;30.50;34.60;99377.81;5073757;28;20067;-68
2022/07/05 05:53:06;;;;;;;11.55;5.70;;;;;;;30.48;34.89;99371.78;5073469;28;20127;-68
2022/07/05 05:55:32;;;;;;;8.43;5.18;;;;;;;30.45;34.50;99375.00;5074069;28;20032;-67
2022/07/05 05:58:15;;;;;;;5.82;4.80;;;;;;;30.39;34.79;99359.69;5073232;28;20040;-68
2022/07/05 06:00:42;;;;;;;9.20;5.50;;;;;;;30.34;34.95;99363.19;5073738;28;20440;-68
2022/07/05 06:03:08;;;;;;;9.32;5.20;;;;;;;30.33;34.58;99367.00;5073270;28;20036;-67
2022/07/05 06:05:33;;;;;;;9.05;5.60;;;;;;;30.30;35.01;99362.03;5073606;28;20399;-67
2022/07/05 06:07:59;;;;;;;8.18;5.75;;;;;;;30.22;34.97;99357.84;5073218;28;20036;-68
2022/07/05 06:10:33;;;;;;;11.57;5.80;;;;;;;30.20;35.29;99370.13;5073507;28;20440;-68
2022/07/05 06:13:02;;;;;;;11.40;5.20;;;;;;;30.16;35.20;99371.69;5072926;28;20449;-68
2022/07/05 06:15:28;;;;;;;8.15;5.20;;;;;;;30.13;34.88;99371.13;5073005;28;20066;-67
2022/07/05 06:17:54;;;;;;;5.70;4.78;;;;;;;30.13;35.38;99367.59;5072628;28;20060;-67
2022/07/05 06:20:25;;;;;;;9.32;5.10;;;;;;;30.10;35.29;99365.34;5073525;28;20036;-67
2022/07/05 06:22:52;;;;;;;6.75;4.72;;;;;;;30.05;35.41;99366.13;5072900;28;20064;-68
2022/07/05 06:25:18;;;;;;;9.80;5.40;;;;;;;30.01;35.24;99358.69;5073379;28;20039;-67
2022/07/05 06:27:45;;;;;;;7.68;4.85;;;;;;;29.91;35.34;99360.19;5072740;28;20033;-69
2022/07/05 06:30:15;;;;;;;8.48;4.72;;;;;;;29.75;35.58;99363.78;5073217;28;20032;-68
2022/07/05 06:32:42;;;;;;;8.75;4.80;;;;;;;29.53;35.73;99370.03;5072575;28;20044;-68
2022/07/05 06:35:08;;;;;;;10.52;5.10;;;;;;;29.42;35.99;99368.22;5072639;28;20028;-67
2022/07/05 06:37:44;;;;;;;10.52;5.03;;;;;;;29.34;36.15;99367.59;5072003;28;20028;-67
2022/07/05 06:40:11;;;;;;;9.10;5.32;;;;;;;29.31;36.70;99356.34;5072992;28;20039;-67
2022/07/05 06:42:37;;;;;;;6.25;5.20;;;;;;;29.26;36.87;99358.97;5072759;28;20445;-68
2022/07/05 06:45:03;;;;;;;6.80;5.30;;;;;;;29.20;37.03;99347.16;5072902;28;20032;-67
2022/07/05 06:47:29;;;;;;;8.98;4.18;;;;;;;29.17;36.57;99347.66;5072812;28;20055;-68
2022/07/05 06:49:57;;;;;;;8.55;4.82;;;;;;;29.17;36.96;99353.09;5072357;28;20063;-67
2022/07/05 06:52:23;;;;;;;7.47;4.75;;;;;;;29.14;36.69;99345.44;5072747;28;20032;-67
2022/07/05 06:54:48;;;;;;;6.45;5.45;;;;;;;29.13;36.87;99355.50;5072490;28;20035;-68
2022/07/05 06:57:14;;;;;;;9.80;5.50;;;;;;;29.11;37.05;99363.09;5072297;28;20055;-67
2022/07/05 06:59:39;;;;;;;8.00;5.63;;;;;;;29.07;36.76;99353.78;5072416;28;20036;-68
2022/07/05 07:02:05;;;;;;;6.88;6.00;;;;;;;29.03;37.27;99344.47;5072201;28;20077;-67
2022/07/05 07:04:30;;;;;;;6.05;5.43;;;;;;;29.00;36.92;99342.22;5072497;28;20068;-67
2022/07/05 07:06:55;;;;;;;8.77;5.43;;;;;;;28.96;37.26;99336.47;5072426;28;20082;-68
2022/07/05 07:09:22;;;;;;;8.90;6.05;;;;;;;28.93;37.02;99343.22;5072490;28;20035;-67
2022/07/05 07:11:48;;;;;;;7.30;5.70;;;;;;;28.96;37.02;99338.34;5072178;28;20189;-67
2022/07/05 07:14:16;;;;;;;7.75;5.32;;;;;;;28.94;37.12;99333.16;5072220;28;20484;-67
2022/07/05 07:16:41;;;;;;;8.48;6.07;;;;;;;28.92;37.39;99340.75;5072197;28;20490;-67
2022/07/05 07:19:07;;;;;;;5.32;4.70;;;;;;;28.93;37.35;99340.47;5072747;28;20115;-67
2022/07/05 07:21:32;;;;;;;5.90;5.40;;;;;;;28.93;37.48;99337.75;5072088;28;20064;-68
2022/07/05 07:23:58;;;;;;;8.80;6.18;;;;;;;28.96;36.97;99341.06;5072102;28;20040;-68
2022/07/05 07:26:23;;;;;;;7.22;5.78;;;;;;;28.94;37.58;99341.31;5071847;28;20037;-69
2022/07/05 07:28:49;;;;;;;6.60;5.28;;;;;;;28.92;37.21;99336.09;5072097;28;20115;-69
2022/07/05 07:31:14;;;;;;;5.75;5.13;;;;;;;28.96;37.14;99331.00;5072178;28;20036;-67
2022/07/05 07:33:40;;;;;;;7.13;5.60;;;;;;;28.92;37.26;99333.38;5072431;28;20082;-69
2022/07/05 07:36:05;;;;;;;7.60;5.35;;;;;;;28.99;37.15;99343.28;5072463;28;20032;-69
2022/07/05 07:38:31;;;;;;;9.93;5.63;;;;;;;28.99;37.22;99340.56;5072194;28;20037;-69
2022/07/05 07:40:56;;;;;;;6.25;5.53;;;;;;;28.99;37.12;99326.97;5072230;28;20480;-69
2022/07/05 07:43:22;;;;;;;8.05;5.20;;;;;;;28.99;36.96;99335.13;5072275;28;20079;-69
2022/07/05 07:45:48;;;;;;;9.88;5.55;;;;;;;29.01;37.18;99343.88;5071907;28;20036;-69
2022/07/05 07:48:14;;;;;;;7.00;5.10;;;;;;;29.01;37.15;99336.53;5071729;28;20033;-69
2022/07/05 07:50:39;;;;;;;10.18;5.55;;;;;;;29.03;36.93;99339.00;5075426;28;20048;-69
2022/07/05 07:53:05;;;;;;;6.75;5.63;;;;;;;29.03;37.26;99350.72;5075887;28;20036;-69
2022/07/05 07:55:30;;;;;;;12.75;5.43;;;;;;;29.04;36.93;99348.84;5076253;28;20442;-69
2022/07/05 07:57:56;;;;;;;5.72;5.13;;;;;;;29.02;37.05;99343.63;5075682;28;20028;-68
2022/07/05 08:00:21;;;;;;;7.97;5.10;;;;;;;29.02;37.12;99345.53;5075956;28;20028;-69
2022/07/05 08:02:47;;;;;;;5.30;4.80;;;;;;;29.04;37.45;99346.13;5075506;28;20032;-69
2022/07/05 08:05:12;;;;;;;5.50;4.97;;;;;;;29.03;37.03;99339.81;5075408;28;20036;-69
2022/07/05 08:07:38;;;;;;;5.32;4.82;;;;;;;29.02;37.08;99338.19;5073224;28;20035;-70
2022/07/05 08:10:05;;;;;;;8.20;5.10;;;;;;;29.03;37.09;99328.13;5074419;28;20101;-68
2022/07/05 08:12:42;;;;;;;11.00;5.70;;;;;;;29.04;37.22;99335.22;5075009;28;20392;-68
2022/07/05 08:15:08;;;;;;;10.90;5.35;;;;;;;29.05;37.14;99334.13;5068515;28;20075;-69
2022/07/05 08:17:33;;;;;;;9.38;5.45;;;;;;;29.04;37.49;99336.03;5075158;28;20083;-69
2022/07/05 08:22:43;;;;;;;8.98;5.68;;;;;;;29.04;37.23;99327.84;5075660;28;20138;-69
2022/07/05 08:25:08;;;;;;;9.13;6.28;;;;;;;29.10;37.77;99325.22;5071610;28;20499;-70
2022/07/05 08:27:34;;;;;;;6.38;5.78;;;;;;;29.13;37.70;99333.72;5069747;28;20403;-67
2022/07/05 08:29:59;;;;;;;11.32;5.72;;;;;;;29.13;37.99;99331.00;5075262;28;20055;-68
2022/07/05 08:32:25;;;;;;;12.77;6.53;;;;;;;29.16;37.61;99326.94;5074844;28;20036;-69
2022/07/05 08:34:50;;;;;;;6.75;6.07;;;;;;;29.15;37.60;99325.28;5075358;28;20067;-66
2022/07/05 08:37:18;;;;;;;7.40;5.90;;;;;;;29.12;38.24;99329.34;5074465;28;20040;-70
2022/07/05 08:39:44;;;;;;;14.30;7.05;;;;;;;29.12;37.53;99326.63;5075009;28;20070;-69
2022/07/05 08:42:10;;;;;;;10.20;5.93;;;;;;;29.12;37.52;99321.16;5073195;28;20071;-69
2022/07/05 08:44:38;;;;;;;7.07;5.40;;;;;;;29.13;38.01;99333.72;5060012;28;20071;-68
2022/07/05 08:47:09;;;;;;;6.60;6.00;;;;;;;29.11;37.63;99321.44;5071035;28;20029;-69
2022/07/05 08:49:37;;;;;;;6.07;5.47;;;;;;;29.07;37.93;99308.31;5075044;28;20028;-69
2022/07/05 08:52:09;;;;;;;6.93;6.28;;;;;;;29.09;38.16;99321.66;5073960;28;20452;-69
2022/07/05 08:54:36;;;;;;;10.73;6.03;;;;;;;29.08;38.13;99312.69;5075009;28;20043;-68
2022/07/05 08:57:01;;;;;;;8.85;6.93;;;;;;;29.10;37.65;99312.41;5074761;28;20040;-68
2022/07/05 08:59:27;;;;;;;8.18;6.03;;;;;;;29.11;37.56;99316.78;5074627;28;20502;-69
2022/07/05 09:01:54;;;;;;;6.38;5.78;;;;;;;29.11;37.53;99313.25;5068823;28;20039;-65
2022/07/05 09:04:22;;;;;;;11.90;6.50;;;;;;;29.12;37.85;99313.00;5074340;28;20154;-67
2022/07/05 09:06:48;;;;;;;11.00;6.68;;;;;;;29.14;37.63;99305.41;5073952;28;20055;-64
2022/07/05 09:09:19;;;;;;;7.25;6.15;;;;;;;29.16;37.91;99310.59;5074599;28;20036;-65
2022/07/05 09:11:46;;;;;;;6.47;5.85;;;;;;;29.16;37.81;99303.25;5072515;28;20025;-67
2022/07/05 09:14:21;;;;;;;8.43;5.90;;;;;;;29.17;37.83;99307.63;5073812;28;20037;-67
2022/07/05 09:16:47;;;;;;;6.22;5.60;;;;;;;29.18;37.66;99292.94;5073953;28;20439;-68
2022/07/05 09:19:13;;;;;;;6.07;5.50;;;;;;;29.17;37.52;99294.00;5073916;28;20039;-68
2022/07/05 09:21:38;;;;;;;9.38;5.97;;;;;;;29.18;37.39;99283.94;5071184;28;20120;-68
2022/07/05 09:24:07;;;;;;;11.85;7.22;;;;;;;29.19;37.84;99291.84;5074478;28;20467;-67
2022/07/05 09:26:35;;;;;;;10.25;6.70;;;;;;;29.19;37.68;99291.84;5073759;28;20028;-66
2022/07/05 09:29:06;;;;;;;10.18;6.82;;;;;;;29.19;37.17;99293.75;5074396;28;20085;-67
2022/07/05 09:31:36;;;;;;;6.68;6.07;;;;;;;29.18;37.21;99292.09;5070980;28;20032;-71
2022/07/05 09:34:05;;;;;;;9.75;7.10;;;;;;;29.17;37.63;99288.56;5070563;28;20041;-71
2022/07/05 09:37:01;;;;;;;7.65;6.53;;;;;;;29.17;37.30;99290.44;5053806;28;20029;-67
2022/07/05 09:39:29;;;;;;;8.88;6.88;;;;;;;29.15;37.38;99282.53;5053724;28;20112;-68
2022/07/05 09:42:23;;;;;;;12.32;6.10;;;;;;;29.16;37.32;99283.34;5054406;28;20079;-68
2022/07/05 09:44:52;;;;;;;14.13;6.90;;;;;;;29.16;37.53;99281.47;5071854;28;20492;-69
2022/07/05 09:47:19;;;;;;;10.13;7.07;;;;;;;29.17;37.35;99283.13;5054119;28;20056;-69
2022/07/05 09:49:47;;;;;;;10.32;6.75;;;;;;;29.18;37.52;99287.50;5067966;28;20032;-68
2022/07/05 09:52:29;;;;;;;9.65;6.32;;;;;;;29.16;37.48;99278.75;5073656;28;20028;-69
2022/07/05 09:55:02;;;;;;;9.48;6.78;;;;;;;29.15;38.01;99278.97;5073665;28;20029;-69
2022/07/05 09:57:27;;;;;;;9.30;7.32;;;;;;;29.13;37.39;99276.50;5073139;28;20032;-69
2022/07/05 10:00:12;;;;;;;11.13;7.25;;;;;;;29.15;37.74;99276.25;5073490;28;20043;-69
2022/07/05 10:02:42;;;;;;;11.23;7.25;;;;;;;29.11;37.53;99273.22;5073389;28;20032;-69
2022/07/05 10:05:16;;;;;;;7.32;6.63;;;;;;;29.09;37.32;99272.63;5073256;28;20029;-69
2022/07/05 10:07:50;;;;;;;9.18;7.45;;;;;;;29.07;37.72;99266.59;5073053;28;20040;-69
2022/07/05 10:10:18;;;;;;;10.27;7.30;;;;;;;29.08;37.50;99277.28;5073196;28;20442;-69
2022/07/05 10:12:45;;;;;;;8.27;7.40;;;;;;;29.07;37.20;99269.31;5072267;28;20135;-69
2022/07/05 10:15:13;;;;;;;8.98;7.50;;;;;;;29.07;37.09;99267.44;5073116;28;20038;-69
2022/07/05 10:17:50;;;;;;;8.38;7.43;;;;;;;29.06;37.67;99265.78;5072885;28;20142;-68
2022/07/05 10:20:43;;;;;;;13.85;8.07;;;;;;;29.05;37.29;99260.56;5073090;28;20376;-69
2022/07/05 10:23:12;;;;;;;7.65;6.95;;;;;;;29.06;37.34;99251.34;5070124;28;20037;-68
2022/07/05 10:25:40;;;;;;;9.63;7.68;;;;;;;29.06;37.63;99256.78;5073039;28;20028;-69
2022/07/05 10:28:07;;;;;;;10.65;7.88;;;;;;;29.05;37.21;99249.69;5058102;28;20079;-69
2022/07/05 10:30:34;;;;;;;13.77;8.20;;;;;;;29.06;37.68;99252.19;5053214;28;20033;-69
2022/07/05 10:33:02;;;;;;;14.75;8.77;;;;;;;29.07;37.22;99247.53;5053103;28;20041;-69
2022/07/05 10:35:28;;;;;;;13.48;8.00;;;;;;;29.10;37.28;99248.97;5052849;28;20039;-69
2022/07/05 10:37:54;;;;;;;10.30;7.22;;;;;;;29.08;37.54;99241.00;5056172;28;20028;-69
2022/07/05 10:40:19;;;;;;;11.32;8.05;;;;;;;29.07;37.19;99232.03;5073056;28;20510;-69
2022/07/05 10:42:55;;;;;;;9.10;7.43;;;;;;;29.07;37.17;99237.47;5072555;28;20054;-69
2022/07/05 10:45:34;;;;;;;9.30;7.30;;;;;;;29.07;37.49;99239.38;5072493;28;20437;-69
2022/07/05 10:48:15;;;;;;;16.77;8.15;;;;;;;29.06;37.04;99238.56;5072360;28;20444;-69
2022/07/05 10:50:44;;;;;;;7.82;6.63;;;;;;;29.07;36.95;99234.75;5073196;28;20050;-69
2022/07/05 10:53:10;;;;;;;7.65;6.85;;;;;;;29.06;37.24;99235.84;5072401;28;20048;-69
2022/07/05 10:55:55;;;;;;;9.00;7.30;;;;;;;29.09;36.88;99237.22;5072640;28;20029;-69
2022/07/05 10:58:24;;;;;;;10.65;7.75;;;;;;;29.09;36.79;99242.66;5072592;28;20032;-69
2022/07/05 11:01:12;;;;;;;8.07;7.28;;;;;;;29.15;36.97;99238.97;5072715;28;20028;-69
2022/07/05 11:03:40;;;;;;;11.38;7.53;;;;;;;29.16;37.02;99234.31;5072233;28;20399;-69
2022/07/05 11:06:07;;;;;;;10.20;8.73;;;;;;;29.15;36.92;99249.84;5072427;28;20032;-69
2022/07/05 11:08:57;;;;;;;10.75;8.77;;;;;;;29.15;37.44;99247.13;5072749;28;20067;-69
2022/07/05 11:12:09;;;;;;;15.45;9.10;;;;;;;29.15;37.59;99238.97;5072359;28;20456;-69
2022/07/05 11:14:37;;;;;;;9.07;8.27;;;;;;;29.13;37.96;99229.38;5071851;28;20074;-69
2022/07/05 11:17:11;;;;;;;10.85;8.02;;;;;;;29.14;38.01;99237.31;5072071;28;20450;-69
2022/07/05 11:19:58;;;;;;;11.88;8.70;;;;;;;29.11;38.25;99235.06;5072228;28;20044;-69
2022/07/05 11:22:23;;;;;;;12.70;8.07;;;;;;;29.04;38.28;99239.88;5072468;28;20472;-69
2022/07/05 11:24:49;;;;;;;11.35;8.93;;;;;;;29.02;38.94;99228.41;5075881;28;20039;-69
2022/07/05 11:27:15;;;;;;;12.43;9.18;;;;;;;29.02;39.06;99229.22;5071660;28;20067;-69
2022/07/05 11:29:49;;;;;;;9.57;8.57;;;;;;;29.02;38.83;99229.22;5056337;28;20045;-69
2022/07/05 11:32:34;;;;;;;19.15;8.68;;;;;;;28.96;39.55;99218.50;5056274;28;20041;-69
2022/07/05 11:35:17;;;;;;;10.95;8.70;;;;;;;28.96;39.56;99227.53;5071538;28;20050;-68
2022/07/05 11:38:00;;;;;;;10.63;8.38;;;;;;;28.99;39.60;99226.19;5075884;28;20048;-69
2022/07/05 11:40:28;;;;;;;23.90;9.18;;;;;;;28.97;39.43;99234.59;5076390;28;20024;-69